Appleton, Colorado
Current Conditions -  °F | °C
As of 4:53 PM on Monday 24 Nov 2014 (Local Time) from KGJT Reporting Station
Clear Clear  
Wind Chill: -3°   Ceiling: Unl
Heat Index:   Visibility: 10mi
Dew Point: -12°   Wind: 14mph
Humidity: 36%   Direction: 340°NNW
Pressure: 30.27"   Gusts: NA
Location:  39.1857°N, 108.6°W
Report Text: KGJT 242353Z 34012KT 10SM CLR 02/M12 A3027 RMK AO2 SLP266 60000 T00221117 10050 20000 53019
Loading
Personal Weather Stations






























Interactive Weather Map New forecast layout! Learn more

10-Day Weather Forecast

Advertisements
Track Severe Weather on mobile